Time;durP1;ratioP1;P1;durP2;ratioP2;P2;SDS_P1;SDS_P2;PMS_P1;PMS_P2;Temp;Humidity;BMP_temperature;BMP_pressure;BME280_temperature;BME280_humidity;BME280_pressure;Samples;Min_cycle;Max_cycle;Signal;HPM_P1;HPM_P2
2023/12/08 00:01:16;;;;;;;83.00;30.70;;;;;;;1.50;78.47;100976.85;683014;1262;139937;-81
2023/12/08 00:16:53;;;;;;;106.40;36.10;;;;;;;1.27;78.69;100961.89;683036;1260;139796;-81
2023/12/08 00:32:30;;;;;;;88.50;29.30;;;;;;;1.29;78.13;100956.45;682975;1263;139701;-81
2023/12/08 00:48:07;;;;;;;89.50;32.40;;;;;;;1.27;78.29;100962.20;682948;1262;140112;-81
2023/12/08 01:03:44;;;;;;;80.50;29.80;;;;;;;1.19;78.14;100955.80;683081;1262;139823;-80
2023/12/08 01:19:21;;;;;;;79.10;31.40;;;;;;;1.11;77.48;100959.04;682946;1263;139976;-80
2023/12/08 01:34:58;;;;;;;76.40;25.40;;;;;;;0.93;77.44;100964.36;675247;1263;140690;-80
2023/12/08 01:50:35;;;;;;;;;;;;;;;0.79;77.69;100977.08;682747;1261;139825;-80
2023/12/08 02:06:12;;;;;;;94.80;37.70;;;;;;;0.68;77.49;100979.01;682948;1259;127027;-80
2023/12/08 02:21:49;;;;;;;78.20;27.10;;;;;;;0.65;77.33;100979.16;683091;1262;140069;-80
2023/12/08 02:37:27;;;;;;;70.90;25.30;;;;;;;0.64;77.05;100977.09;682949;1261;140034;-80
2023/12/08 02:53:04;;;;;;;85.20;31.10;;;;;;;0.40;77.14;100980.86;683036;1262;140332;-80
2023/12/08 03:08:42;;;;;;;78.50;30.00;;;;;;;0.53;77.26;100982.67;682966;1263;142413;-80
2023/12/08 03:24:19;;;;;;;76.20;25.00;;;;;;;0.17;77.64;100979.58;682950;1262;139895;-80
2023/12/08 03:39:57;;;;;;;71.70;25.20;;;;;;;-0.09;78.92;100971.81;682904;1263;139304;-80
2023/12/08 03:55:34;;;;;;;78.80;26.30;;;;;;;-0.28;79.54;100963.16;682948;1260;139580;-80
2023/12/08 04:11:12;;;;;;;79.60;25.10;;;;;;;-0.28;79.50;100957.14;683012;1258;139853;-80
2023/12/08 04:26:50;;;;;;;95.00;34.60;;;;;;;-0.28;79.38;100955.41;682915;1261;139686;-80
2023/12/08 04:42:27;;;;;;;190.10;60.80;;;;;;;-0.17;78.87;100932.55;682788;1257;140420;-80
2023/12/08 04:58:04;;;;;;;307.30;81.20;;;;;;;-0.29;78.88;100915.41;683047;1263;139555;-80
2023/12/08 05:13:41;;;;;;;201.90;56.50;;;;;;;-0.39;79.76;100915.73;682818;1258;139665;-80
2023/12/08 05:29:18;;;;;;;112.90;37.40;;;;;;;-0.62;80.05;100923.48;683090;1257;140755;-79
2023/12/08 05:44:55;;;;;;;115.80;31.00;;;;;;;-0.65;80.01;100916.36;682923;1260;140785;-80
2023/12/08 06:00:33;;;;;;;91.10;28.70;;;;;;;-0.79;80.31;100925.70;682845;1260;140499;-80
2023/12/08 06:16:11;;;;;;;140.30;41.00;;;;;;;-0.81;80.36;100940.04;682982;1260;139344;-81
2023/12/08 06:31:50;;;;;;;352.30;119.50;;;;;;;-0.78;80.36;100945.98;682955;1257;140131;-80
2023/12/08 06:47:27;;;;;;;108.20;38.70;;;;;;;-0.80;80.42;100956.84;682935;1257;139767;-80
2023/12/08 07:03:05;;;;;;;107.30;36.00;;;;;;;-0.87;80.65;100965.83;682945;1260;139962;-80
2023/12/08 07:18:42;;;;;;;118.00;38.10;;;;;;;-0.91;81.21;100971.61;682821;1257;140360;-80
2023/12/08 07:34:19;;;;;;;292.90;83.60;;;;;;;-0.78;81.36;100964.00;682919;1257;139835;-81
2023/12/08 07:49:56;;;;;;;146.10;46.30;;;;;;;-0.41;80.20;100969.77;682774;1262;139881;-81
2023/12/08 08:05:33;;;;;;;292.50;73.20;;;;;;;-0.37;79.72;100971.00;683137;1260;139785;-80
2023/12/08 08:21:10;;;;;;;165.70;44.20;;;;;;;-0.36;79.32;100942.25;682871;1259;140618;-80
2023/12/08 08:36:47;;;;;;;419.70;103.50;;;;;;;-0.24;79.25;100941.71;682906;1260;139983;-80
2023/12/08 08:52:24;;;;;;;782.50;240.50;;;;;;;-0.18;78.58;100930.51;683133;1260;139825;-80
2023/12/08 09:08:01;;;;;;;330.80;93.80;;;;;;;0.07;78.17;100930.55;682836;1262;139936;-80
2023/12/08 09:23:38;;;;;;;313.60;83.50;;;;;;;0.28;77.47;100935.34;683147;1259;139963;-80
2023/12/08 09:39:15;;;;;;;160.50;52.30;;;;;;;0.35;77.14;100944.56;682994;1257;139524;-80
2023/12/08 09:54:56;;;;;;;215.90;66.20;;;;;;;0.39;77.12;100893.49;682736;1263;142241;-81
2023/12/08 10:10:32;;;;;;;242.70;67.90;;;;;;;0.37;76.89;100853.96;682827;1259;139335;-81
2023/12/08 10:26:12;;;;;;;130.90;41.80;;;;;;;0.66;76.52;100851.31;682886;1257;140349;-80
2023/12/08 10:41:49;;;;;;;179.60;57.20;;;;;;;0.71;76.42;100838.08;683194;1259;140734;-80
2023/12/08 10:57:26;;;;;;;248.40;73.40;;;;;;;0.91;75.72;100846.26;683094;1263;140821;-80
2023/12/08 11:13:14;;;;;;;198.30;54.50;;;;;;;0.96;75.68;100863.14;683012;1260;139589;-80
2023/12/08 11:29:06;;;;;;;186.30;58.30;;;;;;;0.80;75.62;100855.64;683072;1259;139918;-80
2023/12/08 11:44:44;;;;;;;146.70;43.30;;;;;;;0.67;75.78;100831.52;682924;1259;140793;-80
2023/12/08 12:00:29;;;;;;;277.60;74.60;;;;;;;0.45;76.82;100823.89;683081;1259;139662;-79
2023/12/08 12:16:06;;;;;;;285.80;74.90;;;;;;;0.75;76.53;100805.91;683104;1258;140120;-80
2023/12/08 12:31:43;;;;;;;393.00;98.80;;;;;;;0.70;76.44;100803.87;683018;1262;139518;-80
2023/12/08 12:47:26;;;;;;;412.40;115.70;;;;;;;0.56;77.15;100784.92;683146;1259;139534;-79
2023/12/08 13:03:13;;;;;;;352.80;87.40;;;;;;;0.53;77.33;100770.59;683045;1260;139929;-79
2023/12/08 13:18:54;;;;;;;381.80;93.80;;;;;;;0.35;77.85;100759.02;683482;1259;139980;-80
2023/12/08 13:34:32;;;;;;;520.50;136.00;;;;;;;0.30;78.13;100762.50;675946;1257;10136525;-79
2023/12/08 13:50:09;;;;;;;322.80;81.50;;;;;;;0.30;78.12;100768.86;683586;1262;141482;-81
2023/12/08 14:05:53;;;;;;;521.70;176.30;;;;;;;0.27;78.12;100775.15;683423;1261;139423;-78
2023/12/08 14:21:34;;;;;;;212.10;66.90;;;;;;;0.17;79.00;100751.81;683898;1262;139438;-80
2023/12/08 14:37:10;;;;;;;228.90;64.10;;;;;;;0.12;79.12;100752.82;683087;1259;139616;-79
2023/12/08 14:52:48;;;;;;;258.50;73.70;;;;;;;0.06;79.52;100757.21;683882;1262;138630;-79
2023/12/08 15:08:25;;;;;;;225.20;67.60;;;;;;;0.14;79.48;100762.20;683121;1260;140268;-79
2023/12/08 15:24:02;;;;;;;238.50;64.00;;;;;;;0.30;78.80;100764.23;683095;1263;140053;-80
2023/12/08 15:39:40;;;;;;;243.40;70.80;;;;;;;0.35;79.21;100763.00;683010;1257;140347;-80
2023/12/08 15:55:17;;;;;;;177.50;51.20;;;;;;;0.33;78.66;100741.73;682816;1262;140008;-80
2023/12/08 16:10:56;;;;;;;173.20;53.40;;;;;;;0.09;79.28;100729.74;683048;1262;139494;-80
2023/12/08 16:26:33;;;;;;;183.80;53.20;;;;;;;0.18;79.68;100715.98;682870;1261;141222;-80
2023/12/08 16:42:11;;;;;;;226.80;61.80;;;;;;;0.25;79.33;100705.03;682868;1263;140142;-80
2023/12/08 16:57:48;;;;;;;567.70;180.50;;;;;;;0.27;79.72;100709.09;682889;1260;139803;-79
2023/12/08 17:13:25;;;;;;;252.20;68.60;;;;;;;0.37;79.58;100708.88;682834;1262;139742;-79
2023/12/08 17:29:02;;;;;;;175.70;51.60;;;;;;;0.33;79.73;100716.96;682956;1262;140028;-80
2023/12/08 17:44:42;;;;;;;150.90;46.10;;;;;;;0.52;79.18;100723.98;682722;1261;139402;-79
2023/12/08 18:00:19;;;;;;;164.00;45.50;;;;;;;0.48;80.19;100724.98;682797;1259;140510;-80
2023/12/08 18:15:56;;;;;;;541.10;147.10;;;;;;;0.47;79.96;100732.60;682825;1261;140246;-80
2023/12/08 18:31:35;;;;;;;167.60;50.00;;;;;;;0.40;80.70;100722.21;682940;1261;140722;-79
2023/12/08 18:47:12;;;;;;;130.90;39.40;;;;;;;0.39;80.79;100724.65;683109;1262;140447;-80
2023/12/08 19:02:49;;;;;;;142.90;41.10;;;;;;;0.28;81.17;100729.70;682991;1262;140325;-80
2023/12/08 19:18:26;;;;;;;176.60;50.60;;;;;;;0.21;81.86;100715.02;682686;1261;139720;-79
2023/12/08 19:34:03;;;;;;;123.70;39.50;;;;;;;0.17;82.13;100698.99;682804;1260;140400;-79
2023/12/08 19:49:40;;;;;;;149.00;42.30;;;;;;;0.18;82.47;100695.50;682798;1262;139857;-80
2023/12/08 20:05:17;;;;;;;182.00;49.10;;;;;;;0.11;82.69;100692.17;682725;1263;140607;-80
2023/12/08 20:20:54;;;;;;;243.40;68.00;;;;;;;0.13;83.08;100699.66;682698;1262;140169;-79
2023/12/08 20:36:33;;;;;;;141.30;43.00;;;;;;;0.27;82.95;100702.07;682778;1262;139936;-79
2023/12/08 20:52:10;;;;;;;178.90;52.90;;;;;;;0.19;82.38;100699.41;682774;1262;139454;-80
2023/12/08 21:07:47;;;;;;;158.00;43.80;;;;;;;0.28;82.85;100696.32;682901;1263;139455;-79
2023/12/08 21:23:24;;;;;;;189.60;55.10;;;;;;;0.33;82.74;100703.71;682502;1259;139220;-79
2023/12/08 21:39:03;;;;;;;205.50;55.30;;;;;;;0.40;83.23;100709.27;682675;1263;139826;-79
2023/12/08 21:54:40;;;;;;;150.80;42.70;;;;;;;0.32;83.58;100706.52;682660;1263;140718;-79
2023/12/08 22:10:17;;;;;;;159.00;43.20;;;;;;;0.10;84.84;100703.91;682750;1257;140221;-79
2023/12/08 22:25:55;;;;;;;162.90;46.80;;;;;;;0.28;84.68;100697.01;682213;1259;140471;-79
2023/12/08 22:41:32;;;;;;;162.40;48.80;;;;;;;0.21;85.59;100708.14;682511;1260;140336;-79
2023/12/08 22:57:09;;;;;;;169.90;47.40;;;;;;;0.29;85.68;100699.73;682592;1259;139757;-79
2023/12/08 23:12:46;;;;;;;185.50;47.60;;;;;;;0.43;85.40;100673.90;682654;1262;139870;-79
2023/12/08 23:28:24;;;;;;;190.00;49.00;;;;;;;0.47;85.10;100672.21;682963;1257;139702;-79
2023/12/08 23:44:01;;;;;;;192.40;47.70;;;;;;;0.47;85.75;100658.94;682939;1257;140421;-79
2023/12/08 23:59:38;;;;;;;169.50;46.20;;;;;;;0.41;86.07;100657.96;683187;1260;140232;-80
